createdAt,value
2023-02-02T00:02:40.466Z,5.54
2023-02-02T00:05:25.928Z,5.51
2023-02-02T00:08:11.046Z,5.64
2023-02-02T00:10:55.886Z,5.23
2023-02-02T00:13:40.790Z,5.11
2023-02-02T00:16:25.648Z,4.76
2023-02-02T00:19:19.790Z,5.12
2023-02-02T00:22:05.029Z,5.29
2023-02-02T00:24:49.917Z,5.30
2023-02-02T00:27:34.918Z,5.23
2023-02-02T00:30:19.763Z,5.13
2023-02-02T00:33:04.617Z,4.79
2023-02-02T00:35:56.670Z,4.88
2023-02-02T00:38:42.842Z,4.67
2023-02-02T00:41:28.167Z,4.71
2023-02-02T00:44:14.219Z,4.87
2023-02-02T00:46:59.267Z,4.83
2023-02-02T00:49:44.176Z,5.06
2023-02-02T00:52:29.065Z,5.05
2023-02-02T00:55:17.716Z,4.97
2023-02-02T00:58:03.024Z,4.84
2023-02-02T01:00:49.148Z,5.02
2023-02-02T01:03:35.454Z,4.93
2023-02-02T01:06:20.587Z,5.02
2023-02-02T01:09:06.830Z,4.85
2023-02-02T01:11:55.690Z,4.85
2023-02-02T01:14:44.553Z,4.82
2023-02-02T01:17:29.710Z,4.87
2023-02-02T01:20:15.727Z,4.89
2023-02-02T01:23:02.188Z,5.32
2023-02-02T01:25:47.306Z,5.59
2023-02-02T01:28:33.855Z,5.26
2023-02-02T01:31:19.135Z,5.19
2023-02-02T01:34:08.148Z,5.30
2023-02-02T01:36:55.105Z,5.47
2023-02-02T01:39:40.291Z,5.42
2023-02-02T01:42:25.352Z,5.21
2023-02-02T01:45:19.109Z,5.73
2023-02-02T01:48:04.366Z,5.71
2023-02-02T01:50:49.130Z,5.09
2023-02-02T01:53:35.252Z,5.40
2023-02-02T01:56:21.657Z,4.60
2023-02-02T01:59:06.796Z,4.81
2023-02-02T02:01:54.088Z,5.18
2023-02-02T02:07:40.792Z,4.64
2023-02-02T02:10:27.295Z,4.98
2023-02-02T02:13:16.679Z,5.01
2023-02-02T02:16:02.941Z,5.29
2023-02-02T02:18:48.212Z,5.34
2023-02-02T02:21:33.020Z,5.04
2023-02-02T02:24:18.013Z,5.31
2023-02-02T02:27:02.889Z,5.46
2023-02-02T02:29:50.147Z,4.92
2023-02-02T02:32:35.302Z,5.49
2023-02-02T02:35:20.119Z,5.66
2023-02-02T02:38:06.194Z,5.77
2023-02-02T02:40:53.658Z,5.71
2023-02-02T02:43:38.617Z,5.66
2023-02-02T02:46:23.515Z,5.77
2023-02-02T02:49:10.704Z,5.47
2023-02-02T02:52:00.207Z,5.40
2023-02-02T02:54:47.786Z,5.44
2023-02-02T02:57:32.980Z,5.31
2023-02-02T03:00:17.736Z,5.23
2023-02-02T03:03:03.905Z,5.50
2023-02-02T03:05:50.188Z,5.32
2023-02-02T03:08:39.204Z,5.20
2023-02-02T03:11:24.477Z,5.02
2023-02-02T03:14:09.353Z,5.22
2023-02-02T03:16:54.218Z,5.21
2023-02-02T03:19:40.892Z,5.19
2023-02-02T03:22:25.956Z,5.09
2023-02-02T03:25:12.195Z,5.08
2023-02-02T03:27:57.381Z,5.32
2023-02-02T03:30:42.330Z,5.33
2023-02-02T03:33:27.178Z,5.02
2023-02-02T03:36:11.943Z,5.56
2023-02-02T03:38:59.298Z,5.52
2023-02-02T03:41:45.576Z,5.28
2023-02-02T03:44:32.190Z,5.27
2023-02-02T03:47:23.148Z,5.40
2023-02-02T03:50:15.617Z,5.29
2023-02-02T03:53:01.751Z,5.36
2023-02-02T03:55:46.872Z,5.02
2023-02-02T03:58:31.800Z,5.23
2023-02-02T04:01:23.950Z,5.04
2023-02-02T04:04:08.962Z,4.95
2023-02-02T04:06:53.748Z,4.97
2023-02-02T04:09:38.596Z,5.31
2023-02-02T04:12:24.658Z,5.17
2023-02-02T04:15:12.263Z,5.30
2023-02-02T04:18:01.560Z,5.10
2023-02-02T04:20:46.501Z,5.18
2023-02-02T04:23:32.636Z,5.11
2023-02-02T04:26:20.193Z,5.22
2023-02-02T04:29:06.409Z,5.36
2023-02-02T04:31:51.761Z,5.53
2023-02-02T04:34:37.075Z,5.53
2023-02-02T04:37:21.872Z,5.36
2023-02-02T04:40:06.813Z,5.21
2023-02-02T04:42:51.635Z,5.43
2023-02-02T04:45:36.618Z,5.29
2023-02-02T04:48:21.430Z,4.89
2023-02-02T04:51:08.177Z,5.05
2023-02-02T04:53:53.327Z,5.57
2023-02-02T04:56:38.615Z,5.61
2023-02-02T04:59:25.957Z,5.06
2023-02-02T05:02:15.183Z,5.02
2023-02-02T05:07:59.317Z,5.13
2023-02-02T05:10:44.048Z,5.16
2023-02-02T05:13:29.021Z,5.45
2023-02-02T05:16:13.779Z,4.93
2023-02-02T05:19:00.976Z,4.97
2023-02-02T05:21:46.112Z,5.20
2023-02-02T05:24:33.912Z,4.95
2023-02-02T05:27:19.130Z,5.16
2023-02-02T05:30:03.946Z,5.13
2023-02-02T05:32:48.871Z,4.96
2023-02-02T05:35:33.931Z,5.06
2023-02-02T05:38:18.947Z,5.12
2023-02-02T05:41:03.963Z,5.63
2023-02-02T05:43:48.728Z,5.25
2023-02-02T05:46:33.697Z,5.02
2023-02-02T05:49:18.473Z,4.85
2023-02-02T05:52:03.316Z,4.58
2023-02-02T05:54:48.101Z,5.20
2023-02-02T05:57:32.970Z,5.24
2023-02-02T06:00:17.826Z,5.02
2023-02-02T06:03:13.210Z,5.40
2023-02-02T06:05:59.363Z,4.96
2023-02-02T06:08:48.357Z,5.10
2023-02-02T06:11:33.581Z,5.43
2023-02-02T06:14:18.336Z,4.62
2023-02-02T06:17:05.533Z,5.13
2023-02-02T06:19:55.023Z,5.41
2023-02-02T06:22:41.318Z,5.17
2023-02-02T06:25:26.847Z,5.00
2023-02-02T06:28:13.190Z,5.15
2023-02-02T06:31:02.675Z,4.80
2023-02-02T06:33:47.717Z,4.62
2023-02-02T06:36:32.731Z,4.92
2023-02-02T06:39:17.572Z,5.06
2023-02-02T06:42:19.387Z,4.94
2023-02-02T06:45:06.261Z,5.10
2023-02-02T06:47:51.123Z,4.72
2023-02-02T06:50:37.288Z,5.05
2023-02-02T06:53:22.359Z,5.27
2023-02-02T06:56:14.884Z,4.64
2023-02-02T06:59:00.167Z,4.85
2023-02-02T07:01:45.182Z,4.86
2023-02-02T07:04:30.148Z,5.17
2023-02-02T07:07:15.091Z,5.31
2023-02-02T07:09:59.950Z,5.32
2023-02-02T07:12:47.704Z,4.94
2023-02-02T07:15:32.922Z,4.97
2023-02-02T07:18:23.557Z,5.10
2023-02-02T07:21:08.813Z,5.20
2023-02-02T07:23:53.745Z,5.45
2023-02-02T07:26:38.573Z,5.55
2023-02-02T07:29:23.611Z,5.32
2023-02-02T07:32:11.817Z,4.78
2023-02-02T07:34:57.032Z,5.03
2023-02-02T07:37:43.242Z,5.37
2023-02-02T07:40:28.564Z,4.56
2023-02-02T07:43:15.751Z,5.04
2023-02-02T07:46:01.035Z,4.48
2023-02-02T07:48:45.940Z,3.90
2023-02-02T07:51:30.743Z,3.77
2023-02-02T07:54:18.086Z,4.32
2023-02-02T07:57:03.060Z,4.57
2023-02-02T07:59:47.944Z,4.59
2023-02-02T08:02:32.837Z,4.95
2023-02-02T08:05:17.773Z,4.97
2023-02-02T08:08:04.024Z,4.62
2023-02-02T08:10:53.093Z,4.86
2023-02-02T08:13:38.164Z,4.80
2023-02-02T08:16:27.449Z,5.10
2023-02-02T08:19:13.878Z,5.41
2023-02-02T08:21:59.219Z,5.15
2023-02-02T08:24:44.048Z,5.95
2023-02-02T08:27:30.757Z,6.24
2023-02-02T08:30:15.669Z,5.83
2023-02-02T08:33:00.591Z,4.94
2023-02-02T08:35:45.502Z,5.29
2023-02-02T08:38:32.848Z,5.89
2023-02-02T08:41:18.085Z,6.13
2023-02-02T08:44:03.093Z,6.08
2023-02-02T08:46:50.360Z,5.99
2023-02-02T08:49:35.671Z,5.16
2023-02-02T08:52:24.194Z,5.00
2023-02-02T08:55:12.753Z,5.83
2023-02-02T08:57:57.890Z,6.09
2023-02-02T09:00:42.670Z,5.74
2023-02-02T09:03:27.465Z,5.56
2023-02-02T09:06:12.265Z,5.72
2023-02-02T09:08:57.203Z,5.88
2023-02-02T09:11:42.174Z,5.93
2023-02-02T09:14:27.085Z,6.67
2023-02-02T09:17:13.216Z,6.32
2023-02-02T09:19:58.495Z,6.27
2023-02-02T09:22:46.994Z,6.54
2023-02-02T09:25:32.198Z,7.06
2023-02-02T09:28:21.314Z,6.96
2023-02-02T09:31:06.590Z,7.12
2023-02-02T09:33:51.933Z,7.11
2023-02-02T09:36:39.109Z,7.14
2023-02-02T09:39:24.342Z,6.41
2023-02-02T09:42:09.180Z,6.76
2023-02-02T09:44:54.088Z,6.43
2023-02-02T09:47:38.980Z,6.34
2023-02-02T09:50:23.883Z,6.84
2023-02-02T09:53:08.770Z,7.17
2023-02-02T09:55:53.569Z,6.96
2023-02-02T09:58:38.505Z,7.07
2023-02-02T10:01:25.266Z,7.26
2023-02-02T10:04:12.678Z,8.04
2023-02-02T10:07:01.337Z,7.78
2023-02-02T10:09:46.469Z,7.56
2023-02-02T10:12:31.202Z,7.44
2023-02-02T10:15:17.243Z,6.87
2023-02-02T10:18:04.854Z,6.99
2023-02-02T10:20:50.908Z,7.06
2023-02-02T10:23:35.857Z,7.23
2023-02-02T10:26:20.706Z,7.98
2023-02-02T10:29:06.113Z,8.28
2023-02-02T10:31:51.276Z,7.97
2023-02-02T10:34:39.568Z,8.05
2023-02-02T10:37:26.093Z,8.28
2023-02-02T10:40:11.274Z,8.54
2023-02-02T10:42:57.244Z,8.95
2023-02-02T10:45:43.155Z,9.30
2023-02-02T10:48:27.910Z,9.04
2023-02-02T10:51:12.905Z,8.78
2023-02-02T10:53:58.940Z,9.17
2023-02-02T10:56:46.998Z,9.10
2023-02-02T10:59:36.464Z,8.97
2023-02-02T11:02:22.852Z,9.22
2023-02-02T11:05:09.240Z,9.82
2023-02-02T11:08:01.870Z,10.35
2023-02-02T11:10:47.052Z,10.84
2023-02-02T11:13:32.489Z,10.89
2023-02-02T11:16:17.840Z,10.97
2023-02-02T11:19:02.784Z,11.19
2023-02-02T11:21:47.603Z,11.45
2023-02-02T11:24:32.496Z,11.81
2023-02-02T11:27:17.327Z,11.50
2023-02-02T11:30:02.215Z,11.61
2023-02-02T11:32:49.478Z,11.81
2023-02-02T11:35:34.410Z,11.65
2023-02-02T11:38:19.444Z,11.38
2023-02-02T11:41:07.200Z,11.44
2023-02-02T11:43:52.308Z,10.53
2023-02-02T11:46:37.222Z,11.54
2023-02-02T11:49:22.077Z,12.14
2023-02-02T11:52:09.651Z,11.48
2023-02-02T11:54:54.636Z,11.28
2023-02-02T11:57:39.672Z,11.06
2023-02-02T12:00:24.715Z,11.84
2023-02-02T12:03:09.831Z,11.63
2023-02-02T12:05:54.748Z,11.44
2023-02-02T12:08:39.589Z,11.98
2023-02-02T12:11:27.131Z,12.25
2023-02-02T12:14:11.697Z,12.55
2023-02-02T12:16:56.669Z,12.52
2023-02-02T12:19:42.895Z,12.82
2023-02-02T12:22:29.854Z,12.86
2023-02-02T12:25:15.077Z,12.45
2023-02-02T12:27:59.823Z,13.09
2023-02-02T12:30:44.851Z,13.04
2023-02-02T12:33:31.892Z,12.55
2023-02-02T12:36:16.923Z,13.20
2023-02-02T12:39:04.156Z,11.92
2023-02-02T12:41:49.314Z,11.44
2023-02-02T12:44:34.259Z,13.06
2023-02-02T12:47:20.544Z,12.66
2023-02-02T12:50:05.790Z,12.61
2023-02-02T12:52:50.737Z,12.29
2023-02-02T12:55:37.839Z,11.99
2023-02-02T12:58:29.376Z,11.69
2023-02-02T13:01:14.642Z,11.17
2023-02-02T13:04:02.060Z,11.95
2023-02-02T13:06:47.082Z,12.19
2023-02-02T13:09:31.987Z,12.15
2023-02-02T13:12:16.906Z,12.73
2023-02-02T13:15:01.900Z,12.82
2023-02-02T13:17:48.001Z,12.38
2023-02-02T13:20:33.216Z,13.25
2023-02-02T13:23:20.544Z,13.42
2023-02-02T13:26:05.669Z,14.00
2023-02-02T13:28:53.474Z,13.87
2023-02-02T13:31:38.731Z,14.58
2023-02-02T13:34:23.938Z,14.25
2023-02-02T13:37:08.794Z,14.09
2023-02-02T13:39:53.720Z,13.35
2023-02-02T13:42:40.517Z,12.90
2023-02-02T13:45:26.360Z,13.32
2023-02-02T13:48:11.688Z,13.87
2023-02-02T13:50:56.519Z,13.46
2023-02-02T13:53:41.422Z,14.20
2023-02-02T13:56:29.235Z,14.55
2023-02-02T13:59:16.094Z,13.64
2023-02-02T14:02:04.863Z,13.87
2023-02-02T14:04:49.948Z,13.44
2023-02-02T14:07:35.928Z,13.38
2023-02-02T14:10:21.912Z,14.51
2023-02-02T14:13:08.971Z,14.81
2023-02-02T14:15:54.087Z,15.52
2023-02-02T14:18:39.963Z,13.19
2023-02-02T14:21:27.586Z,14.48
2023-02-02T14:24:12.844Z,14.19
2023-02-02T14:26:57.774Z,13.26
2023-02-02T14:29:46.798Z,13.75
2023-02-02T14:32:32.099Z,13.68
2023-02-02T14:35:16.906Z,14.99
2023-02-02T14:38:01.753Z,15.12
2023-02-02T14:40:46.594Z,14.77
2023-02-02T14:43:31.492Z,15.52
2023-02-02T14:46:16.336Z,16.57
2023-02-02T14:49:04.426Z,17.32
2023-02-02T14:51:51.350Z,17.44
2023-02-02T14:54:36.314Z,17.39
2023-02-02T14:57:22.366Z,16.66
2023-02-02T15:00:07.709Z,14.32
2023-02-02T15:02:52.661Z,13.21
2023-02-02T15:05:44.966Z,11.45
2023-02-02T15:08:30.175Z,11.68
2023-02-02T15:11:16.153Z,12.28
2023-02-02T15:14:02.464Z,10.96
2023-02-02T15:16:48.039Z,10.14
2023-02-02T15:19:33.151Z,9.43
2023-02-02T15:22:18.014Z,9.37
2023-02-02T15:25:02.774Z,9.36
2023-02-02T15:27:56.326Z,10.08
2023-02-02T15:30:42.170Z,9.39
2023-02-02T15:33:29.349Z,9.42
2023-02-02T15:36:14.402Z,9.02
2023-02-02T15:38:59.361Z,8.57
2023-02-02T15:41:44.038Z,8.70
2023-02-02T15:44:28.951Z,9.11
2023-02-02T15:47:13.849Z,9.21
2023-02-02T15:50:00.065Z,9.76
2023-02-02T15:52:46.457Z,9.26
2023-02-02T15:55:32.711Z,9.83
2023-02-02T15:58:17.998Z,9.65
2023-02-02T16:01:04.266Z,9.21
2023-02-02T16:03:50.589Z,9.33
2023-02-02T16:06:35.845Z,9.37
2023-02-02T16:09:20.649Z,9.10
2023-02-02T16:12:07.972Z,8.93
2023-02-02T16:14:53.113Z,9.05
2023-02-02T16:17:37.975Z,8.80
2023-02-02T16:20:22.864Z,8.82
2023-02-02T16:23:07.585Z,7.81
2023-02-02T16:25:55.462Z,8.18
2023-02-02T16:28:45.718Z,8.28
2023-02-02T16:31:33.509Z,8.38
2023-02-02T16:34:18.572Z,8.20
2023-02-02T16:37:03.430Z,8.30
2023-02-02T16:39:48.291Z,7.96
2023-02-02T16:42:33.197Z,7.04
2023-02-02T16:45:18.053Z,7.18
2023-02-02T16:48:07.288Z,6.83
2023-02-02T16:50:52.455Z,6.42
2023-02-02T16:53:37.297Z,6.38
2023-02-02T16:56:22.181Z,6.71
2023-02-02T16:59:07.275Z,7.24
2023-02-02T17:01:52.175Z,7.44
2023-02-02T17:04:39.469Z,6.88
2023-02-02T17:07:27.368Z,7.38
2023-02-02T17:10:12.451Z,7.20
2023-02-02T17:12:57.491Z,7.48
2023-02-02T17:15:43.387Z,7.50
2023-02-02T17:18:28.442Z,7.37
2023-02-02T17:21:13.287Z,7.28
2023-02-02T17:23:58.151Z,7.23
2023-02-02T17:26:43.074Z,7.06
2023-02-02T17:29:27.721Z,6.90
2023-02-02T17:32:12.651Z,6.69
2023-02-02T17:34:57.538Z,6.62
2023-02-02T17:37:44.627Z,6.53
2023-02-02T17:40:30.852Z,6.51
2023-02-02T17:43:16.065Z,6.43
2023-02-02T17:46:08.370Z,6.44
2023-02-02T17:48:53.421Z,6.28
2023-02-02T17:51:38.316Z,6.10
2023-02-02T17:54:23.147Z,6.05
2023-02-02T17:57:07.881Z,5.99
2023-02-02T17:59:52.783Z,5.93
2023-02-02T18:02:37.887Z,6.18
2023-02-02T18:05:22.929Z,6.42
2023-02-02T18:08:08.204Z,6.21
2023-02-02T18:10:55.457Z,5.93
2023-02-02T18:13:41.723Z,6.02
2023-02-02T18:16:26.944Z,6.10
2023-02-02T18:19:11.830Z,6.16
2023-02-02T18:21:56.714Z,6.10
2023-02-02T18:24:41.483Z,5.99
2023-02-02T18:27:26.532Z,6.03
2023-02-02T18:30:11.580Z,5.86
2023-02-02T18:32:58.910Z,5.83
2023-02-02T18:35:44.227Z,5.70
2023-02-02T18:38:30.291Z,5.84
2023-02-02T18:41:15.578Z,5.68
2023-02-02T18:44:10.680Z,5.64
2023-02-02T18:46:57.031Z,5.56
2023-02-02T18:49:42.278Z,5.47
2023-02-02T18:52:27.101Z,5.47
2023-02-02T18:55:13.107Z,5.35
2023-02-02T18:57:58.448Z,5.56
2023-02-02T19:00:43.313Z,5.34
2023-02-02T19:03:28.290Z,5.58
2023-02-02T19:06:14.403Z,5.55
2023-02-02T19:08:59.642Z,5.21
2023-02-02T19:11:53.257Z,5.07
2023-02-02T19:14:39.682Z,5.13
2023-02-02T19:17:27.192Z,5.76
2023-02-02T19:20:12.152Z,5.75
2023-02-02T19:22:57.215Z,5.59
2023-02-02T19:25:46.559Z,5.35
2023-02-02T19:28:36.805Z,5.42
2023-02-02T19:31:21.991Z,5.16
2023-02-02T19:34:09.017Z,5.29
2023-02-02T19:36:54.122Z,5.29
2023-02-02T19:39:40.151Z,5.23
2023-02-02T19:42:25.538Z,5.25
2023-02-02T19:45:10.323Z,5.53
2023-02-02T19:47:57.049Z,5.46
2023-02-02T19:50:43.855Z,5.33
2023-02-02T19:53:28.975Z,5.30
2023-02-02T19:56:14.087Z,5.38
2023-02-02T19:58:59.351Z,5.43
2023-02-02T20:01:44.392Z,5.20
2023-02-02T20:04:31.403Z,5.03
2023-02-02T20:07:17.674Z,5.08
2023-02-02T20:10:05.340Z,5.24
2023-02-02T20:12:50.580Z,5.19
2023-02-02T20:15:35.415Z,5.25
2023-02-02T20:18:21.564Z,5.20
2023-02-02T20:21:11.012Z,5.32
2023-02-02T20:23:59.978Z,5.08
2023-02-02T20:26:45.212Z,4.77
2023-02-02T20:29:31.279Z,4.84
2023-02-02T20:32:16.388Z,4.69
2023-02-02T20:35:01.276Z,5.00
2023-02-02T20:40:50.785Z,4.55
2023-02-02T20:43:39.048Z,4.72
2023-02-02T20:46:24.131Z,4.68
2023-02-02T20:49:09.176Z,4.83
2023-02-02T20:51:57.644Z,4.74
2023-02-02T20:54:42.967Z,4.91
2023-02-02T20:57:29.018Z,4.99
2023-02-02T21:00:17.262Z,5.08
2023-02-02T21:03:04.551Z,4.98
2023-02-02T21:05:51.450Z,5.10
2023-02-02T21:08:36.613Z,4.57
2023-02-02T21:11:22.530Z,4.94
2023-02-02T21:14:07.848Z,4.84
2023-02-02T21:16:57.412Z,4.89
2023-02-02T21:19:50.227Z,4.34
2023-02-02T21:22:37.455Z,4.18
2023-02-02T21:25:22.489Z,4.03
2023-02-02T21:28:07.459Z,4.29
2023-02-02T21:30:52.424Z,4.49
2023-02-02T21:33:41.608Z,4.82
2023-02-02T21:36:26.884Z,4.92
2023-02-02T21:39:11.866Z,5.06
2023-02-02T21:41:57.991Z,5.21
2023-02-02T21:44:43.158Z,5.23
2023-02-02T21:47:27.954Z,5.17
2023-02-02T21:50:17.100Z,5.09
2023-02-02T21:53:02.320Z,4.91
2023-02-02T21:55:47.202Z,4.72
2023-02-02T21:58:34.279Z,4.73
2023-02-02T22:01:20.528Z,4.42
2023-02-02T22:04:05.739Z,4.37
2023-02-02T22:06:50.637Z,4.28
2023-02-02T22:09:35.578Z,4.55
2023-02-02T22:12:20.460Z,4.76
2023-02-02T22:15:05.406Z,4.92
2023-02-02T22:17:50.359Z,4.17
2023-02-02T22:20:36.435Z,4.26
2023-02-02T22:23:21.807Z,4.20
2023-02-02T22:26:06.799Z,4.06
2023-02-02T22:28:51.795Z,4.29
2023-02-02T22:31:36.684Z,4.60
2023-02-02T22:34:21.533Z,4.21
2023-02-02T22:37:06.526Z,4.03
2023-02-02T22:39:51.480Z,4.74
2023-02-02T22:42:36.555Z,4.79
2023-02-02T22:45:21.635Z,4.56
2023-02-02T22:48:06.457Z,4.44
2023-02-02T22:50:51.337Z,4.05
2023-02-02T22:53:36.328Z,4.14
2023-02-02T22:56:21.250Z,3.83
2023-02-02T22:59:07.258Z,4.21
2023-02-02T23:01:52.534Z,4.32
2023-02-02T23:04:39.602Z,4.02
2023-02-02T23:07:25.925Z,4.20
2023-02-02T23:10:11.081Z,3.90
2023-02-02T23:12:58.699Z,3.91
2023-02-02T23:15:45.301Z,4.14
2023-02-02T23:18:30.552Z,4.43
2023-02-02T23:21:15.370Z,4.20
2023-02-02T23:24:00.368Z,4.46
2023-02-02T23:26:45.284Z,4.21
2023-02-02T23:29:30.180Z,4.30
2023-02-02T23:32:15.076Z,4.50
2023-02-02T23:35:01.148Z,4.10
2023-02-02T23:37:47.529Z,4.28
2023-02-02T23:40:32.758Z,4.06
2023-02-02T23:43:17.697Z,4.04
2023-02-02T23:46:02.547Z,3.90
2023-02-02T23:48:48.684Z,3.74
2023-02-02T23:51:33.870Z,4.08
2023-02-02T23:54:18.764Z,3.92
2023-02-02T23:57:03.696Z,3.85
2023-02-02T23:59:48.638Z,4.11
